Weather at Baptist Health Medical Center Conway Heliport

Public forecast

Using degrees Fahrenheit for public forecast. Weather courtesy of forecast.io.

Closest aviation weather report (METAR) to Baptist Health Medical Center Conway Heliport

Closest report is Little Rock Air Force Base, 15.7 nm (29.1 km) ESE. Retrieved 2021/06/13 10:56 UTC (1 hour ago):

KLRF 131056Z AUTO 24005KT 10SM CLR 25/25 A2991 RMK AO2 SLP127 T02490247

Closest aviation forecast (TAF) to Baptist Health Medical Center Conway Heliport

Closest forecast is Little Rock Air Force Base, 15.7 nm (29.1 km) ESE. Retrieved 2021/06/13 07:09 UTC (5 hours ago):

TAF TAF KLRF 130700Z 1307/1413 VRB06KT 9999 BKN060 QNH2986INS BECMG 1315/1316 03012KT 9999 SCT035 QNH2988INS TX34/1320Z TN24/1407Z